Bei Facebook empfehlenBei Twitter postenGoogle plusPinterest

Das Wetter im Erzgebirge am 21.12.2014

Wetter und Klima am 21.12.2014 Holzhau im Erzgebirge (630m ü.NN)
Letzte gemessene Temperatur und Uhrzeit der Messung23:45:00 Uhr3.10 °C
Temperatur (Maximum / Höchstwert) und Uhrzeit der Messung23:45:00 Uhr3.10 °C
Temperatur (Minimum / Tiefstwert) und Uhrzeit der Messung05:15:000.10 °C
Errechneter Absolutwert der Temperaturschwankungen zwischen Tmin und Tmax des Tages3.00 K
Errechnete Tagesmitteltemperatur1.15521 °C
Gesamt - Niederschlag des Tages (in flüssiger Form)2.59 Liter / m²
Luftdruck (Maximum / Höchstwert) und Zeitpunkt der Messung12:00:00 Uhr1023.50 hPa
Luftdruck (Minimum / Tiefstwert) und Zeitpunkt der Messung00:00:00 Uhr1015.90 hPa
Errechneter Absolutwert der Luftdruckschwankungen des Tages7.60 hPa
Höchste gemessene Windgeschwindigkeit und Uhrzeit der Messung21:30:00 Uhr12.60 km/h
Errechnete Windhäufigkeit in Relation zu den Messwerten des Tages19.79167 %
Niedrigste Windkühle (Windchill) und Zeitpunkt der Messung21:30:00 Uhr-0.90 °C
Taupunkt (Maximum / Höchstwert) und Uhrzeit der Messung23:45:00 Uhr1.50 °C
Taupunkt (Minimum / Tiefstwert) und Uhrzeit der Messung04:00:00-1.00 °C
Anzahl der automatisch eingelesenen Messwerte 96

Detaillierte Wetter- und Klima- Messwerte für den 21.12.2014 in Holzhau im Erzgebirge (630m ü.NN)
ZeitTemperaturLuftdruckRel. LuftfeuchteWindWindrichtungWindchillTaupunktNiederschlag l/m²
23:45:003.10 °C1018.10 hPa89.00 %1.50 °C2.59
23:30:003.10 °C1018.20 hPa89.00 %8.64 km/hWSW0.70 °C1.50 °C2.59
23:15:003.00 °C1018.30 hPa89.00 %1.40 °C2.59
23:00:002.90 °C1018.80 hPa89.00 %1.30 °C2.59
22:45:002.90 °C1018.80 hPa89.00 %1.30 °C2.59
22:30:002.80 °C1019.10 hPa89.00 %4.68 km/hWSW2.80 °C1.20 °C2.59
22:15:002.70 °C1018.90 hPa90.00 %1.20 °C2.59
22:00:002.60 °C1018.90 hPa90.00 %1.10 °C2.59
21:45:002.60 °C1019.30 hPa90.00 %9.36 km/hSSW-0.10 °C1.10 °C2.59
21:30:002.50 °C1019.70 hPa89.00 %12.60 km/hSSW-0.90 °C0.90 °C2.59
21:15:002.40 °C1019.80 hPa89.00 %0.80 °C2.08
21:00:002.40 °C1020.00 hPa89.00 %8.64 km/hSSW-0.10 °C0.80 °C2.08
20:45:002.40 °C1020.20 hPa89.00 %6.48 km/hNW0.60 °C0.80 °C2.08
20:30:002.30 °C1020.30 hPa89.00 %5.40 km/hW0.90 °C0.70 °C2.08
20:15:002.30 °C1020.60 hPa89.00 %7.92 km/hSW0.00 °C0.70 °C2.08
20:00:002.10 °C1020.80 hPa89.00 %0.50 °C2.08
19:45:002.10 °C1020.70 hPa89.00 %0.50 °C1.56
19:30:002.10 °C1020.70 hPa89.00 %0.50 °C1.56
19:15:001.90 °C1020.90 hPa89.00 %4.68 km/hWNW1.90 °C0.30 °C1.56
19:00:001.90 °C1021.00 hPa90.00 %0.40 °C1.56
18:45:001.80 °C1021.10 hPa90.00 %8.64 km/hW-0.80 °C0.30 °C1.56
18:30:001.80 °C1021.20 hPa90.00 %6.84 km/hSW-0.30 °C0.30 °C1.56
18:15:001.60 °C1021.40 hPa90.00 %0.10 °C1.04
18:00:001.60 °C1021.50 hPa90.00 %0.10 °C1.04
17:45:001.60 °C1021.70 hPa90.00 %1.08 km/hWNW1.60 °C0.10 °C1.04
17:30:001.60 °C1021.70 hPa90.00 %0.10 °C1.04
17:15:001.50 °C1021.80 hPa90.00 %0.00 °C0.52
17:00:001.50 °C1021.90 hPa90.00 %0.00 °C0.52
16:45:001.40 °C1021.90 hPa90.00 %-0.10 °C0.52
16:30:001.40 °C1021.90 hPa90.00 %-0.10 °C0.52
16:15:001.40 °C1021.80 hPa90.00 %-0.10 °C0.52
16:00:001.50 °C1022.00 hPa90.00 %2.88 km/hNW1.50 °C0.00 °C0.52
15:45:001.50 °C1022.30 hPa90.00 %0.00 °C0.52
15:30:001.60 °C1022.50 hPa89.00 %0.00 °C0.52
15:15:001.60 °C1022.20 hPa89.00 %5.76 km/hWNW-0.10 °C0.00 °C 
15:00:001.80 °C1022.50 hPa90.00 %8.64 km/hNW-0.80 °C0.30 °C 
14:45:001.80 °C1022.60 hPa90.00 %7.92 km/hWSW-0.60 °C0.30 °C 
14:30:001.80 °C1022.80 hPa90.00 %0.30 °C 
14:15:001.90 °C1022.70 hPa89.00 %0.30 °C 
14:00:002.10 °C1022.80 hPa90.00 %0.60 °C 
13:45:002.20 °C1022.80 hPa90.00 %4.32 km/hSW2.20 °C0.70 °C 
13:30:002.60 °C1023.20 hPa91.00 %1.30 °C 
13:15:002.20 °C1023.10 hPa92.00 %1.00 °C 
13:00:001.90 °C1023.00 hPa92.00 %0.70 °C 
12:45:001.80 °C1022.90 hPa93.00 %6.12 km/hNW0.00 °C0.80 °C 
12:30:001.60 °C1023.10 hPa93.00 %4.68 km/hNNW1.60 °C0.60 °C 
12:15:001.40 °C1023.40 hPa93.00 %0.40 °C 
12:00:001.30 °C1023.50 hPa93.00 %0.30 °C 
11:45:001.00 °C1023.20 hPa94.00 %0.10 °C 
11:30:000.70 °C1023.20 hPa94.00 %-0.20 °C 
11:15:000.70 °C1023.50 hPa94.00 %-0.20 °C 
11:00:000.60 °C1023.30 hPa94.00 %-0.30 °C 
10:45:000.60 °C1023.30 hPa94.00 %-0.30 °C 
10:30:000.50 °C1023.30 hPa94.00 %-0.40 °C 
10:15:000.50 °C1022.90 hPa94.00 %-0.40 °C 
10:00:000.50 °C1022.80 hPa94.00 %-0.40 °C 
09:45:000.40 °C1022.80 hPa94.00 %-0.50 °C 
09:30:000.40 °C1022.80 hPa94.00 %-0.50 °C 
09:15:000.40 °C1022.60 hPa94.00 %-0.50 °C 
09:00:000.40 °C1022.30 hPa94.00 %-0.50 °C 
08:45:000.40 °C1021.80 hPa94.00 %-0.50 °C 
08:30:000.30 °C1021.70 hPa94.00 %-0.50 °C 
08:15:000.30 °C1021.40 hPa94.00 %-0.50 °C 
08:00:000.20 °C1021.10 hPa94.00 %-0.60 °C 
07:45:000.30 °C1020.60 hPa94.00 %-0.50 °C 
07:30:000.30 °C1020.30 hPa94.00 %-0.50 °C 
07:15:000.30 °C1020.10 hPa94.00 %-0.50 °C 
07:00:000.30 °C1020.00 hPa94.00 %-0.50 °C 
06:45:000.30 °C1019.80 hPa94.00 %-0.50 °C 
06:30:000.20 °C1019.70 hPa94.00 %-0.60 °C 
06:15:000.20 °C1019.30 hPa94.00 %-0.60 °C 
06:00:000.20 °C1019.10 hPa93.00 %-0.80 °C 
05:45:000.20 °C1019.10 hPa93.00 %-0.80 °C 
05:30:000.20 °C1018.80 hPa93.00 %-0.80 °C 
05:15:000.10 °C1018.40 hPa93.00 %-0.90 °C 
05:00:000.10 °C1018.00 hPa93.00 %-0.90 °C 
04:45:000.10 °C1017.90 hPa93.00 %-0.90 °C 
04:30:000.20 °C1017.70 hPa93.00 %-0.80 °C 
04:15:000.10 °C1017.50 hPa93.00 %-0.90 °C 
04:00:000.10 °C1017.50 hPa92.00 %-1.00 °C 
03:45:000.10 °C1017.40 hPa93.00 %-0.90 °C 
03:30:000.10 °C1017.30 hPa93.00 %-0.90 °C 
03:15:000.10 °C1017.30 hPa93.00 %-0.90 °C 
03:00:000.10 °C1017.10 hPa93.00 %-0.90 °C 
02:45:000.10 °C1017.20 hPa93.00 %-0.90 °C 
02:30:000.10 °C1017.10 hPa93.00 %-0.90 °C 
02:15:000.10 °C1017.40 hPa93.00 %-0.90 °C 
02:00:000.10 °C1016.90 hPa93.00 %-0.90 °C 
01:45:000.10 °C1016.90 hPa93.00 %-0.90 °C 
01:30:000.10 °C1016.70 hPa94.00 %-0.70 °C 
01:15:000.10 °C1016.50 hPa94.00 %-0.70 °C 
01:00:000.10 °C1016.50 hPa94.00 %-0.70 °C 
00:45:000.10 °C1016.50 hPa94.00 %-0.70 °C 
00:30:000.20 °C1016.20 hPa94.00 %-0.60 °C 
00:15:000.20 °C1016.20 hPa94.00 %-0.60 °C 
00:00:000.20 °C1015.90 hPa94.00 %-0.60 °C 

Permanenter Link zu dieser Seite: Wetter im Erzgebirge am 21.12.2014
Performance-Info: Die Erstellung der Seite / Statistik(en) / Tabelle(n) erforderte 5 Datenbankserver-Abfrage(n) und dauerte 101 Millisekunden. (Dieser Messwert ist von der Gesamt-Auslastung des Servers abhängig.)
Erzgebirge - Wetter | Erzgebirge - Wetter (Mobilgeräte) | Komplette Klimadatenbank